Time;durP1;ratioP1;P1;durP2;ratioP2;P2;SDS_P1;SDS_P2;PMS_P1;PMS_P2;Temp;Humidity;BMP_temperature;BMP_pressure;BME280_temperature;BME280_humidity;BME280_pressure;Samples;Min_cycle;Max_cycle;Signal;HPM_P1;HPM_P2
2022/04/19 00:00:12;;;;;;;5.43;4.13;;;;;;;;;;5064343;28;20708;-18
2022/04/19 00:02:40;;;;;;;6.68;3.97;;;;;;;;;;5064050;28;20232;-18
2022/04/19 00:05:09;;;;;;;8.57;3.95;;;;;;;;;;5061021;28;20257;-18
2022/04/19 00:07:36;;;;;;;9.30;4.03;;;;;;;;;;5063393;28;20230;-19
2022/04/19 00:10:03;;;;;;;4.72;3.97;;;;;;;;;;5063929;28;20229;-18
2022/04/19 00:12:31;;;;;;;4.60;3.97;;;;;;;;;;5062972;28;20244;-18
2022/04/19 00:14:58;;;;;;;5.70;4.00;;;;;;;;;;5061039;28;20210;-18
2022/04/19 00:17:25;;;;;;;5.90;4.00;;;;;;;;;;5063480;28;20238;-18
2022/04/19 00:19:54;;;;;;;8.00;3.83;;;;;;;;;;5069149;28;20238;-18
2022/04/19 00:22:22;;;;;;;5.20;4.30;;;;;;;;;;5062163;28;20248;-18
2022/04/19 00:24:49;;;;;;;6.47;3.78;;;;;;;;;;5064235;28;20283;-18
2022/04/19 00:27:17;;;;;;;4.70;3.78;;;;;;;;;;5061705;28;20230;-18
2022/04/19 00:29:45;;;;;;;9.38;3.90;;;;;;;;;;5063034;28;20234;-18
2022/04/19 00:32:15;;;;;;;7.22;3.70;;;;;;;;;;5067135;28;20214;-18
2022/04/19 00:34:42;;;;;;;4.57;3.55;;;;;;;;;;5060273;28;20226;-18
2022/04/19 00:37:11;;;;;;;5.68;3.28;;;;;;;;;;5063595;28;20234;-18
2022/04/19 00:39:38;;;;;;;15.02;3.72;;;;;;;;;;5063289;28;20237;-18
2022/04/19 00:42:07;;;;;;;5.63;3.65;;;;;;;;;;5064213;28;20225;-18
2022/04/19 00:44:37;;;;;;;5.38;3.58;;;;;;;;;;5060144;28;20249;-18
2022/04/19 00:47:06;;;;;;;6.20;3.42;;;;;;;;;;5059958;28;20249;-18
2022/04/19 00:49:34;;;;;;;3.83;3.28;;;;;;;;;;5063924;28;20233;-18
2022/04/19 00:52:02;;;;;;;8.18;3.40;;;;;;;;;;5063554;28;20618;-18
2022/04/19 00:54:30;;;;;;;4.43;3.50;;;;;;;;;;5063635;28;20226;-18
2022/04/19 00:56:58;;;;;;;4.82;3.45;;;;;;;;;;5062547;28;20221;-18
2022/04/19 00:59:25;;;;;;;4.43;3.22;;;;;;;;;;5060770;28;20233;-18
2022/04/19 01:01:52;;;;;;;3.95;3.33;;;;;;;;;;5064131;28;20218;-18
2022/04/19 01:04:20;;;;;;;4.13;3.42;;;;;;;;;;5063783;28;20237;-18
2022/04/19 01:06:47;;;;;;;4.65;3.50;;;;;;;;;;5070154;28;20233;-18
2022/04/19 01:09:15;;;;;;;3.70;3.03;;;;;;;;;;5066006;28;20244;-18
2022/04/19 01:14:28;;;;;;;4.30;3.30;;;;;;;;;;5063138;28;20230;-18
2022/04/19 01:16:56;;;;;;;4.72;3.25;;;;;;;;;;5064773;28;20239;-18
2022/04/19 01:19:23;;;;;;;3.53;3.20;;;;;;;;;;5060739;28;20225;-18
2022/04/19 01:21:54;;;;;;;4.55;3.28;;;;;;;;;;5061270;28;20249;-18
2022/04/19 01:24:22;;;;;;;5.70;3.10;;;;;;;;;;5062533;28;20296;-18
2022/04/19 01:26:49;;;;;;;3.65;3.08;;;;;;;;;;5063749;28;20234;-18
2022/04/19 01:29:17;;;;;;;4.95;3.10;;;;;;;;;;5059458;28;20210;-18
2022/04/19 01:31:44;;;;;;;3.55;2.75;;;;;;;;;;5063334;28;20225;-18
2022/04/19 01:34:12;;;;;;;6.15;2.70;;;;;;;;;;5062444;28;20787;-18
2022/04/19 01:36:39;;;;;;;4.18;3.30;;;;;;;;;;5058424;28;20238;-18
2022/04/19 01:39:09;;;;;;;5.43;3.40;;;;;;;;;;5062542;28;20248;-18
2022/04/19 01:41:38;;;;;;;4.45;2.92;;;;;;;;;;5059757;28;20221;-18
2022/04/19 01:44:06;;;;;;;3.85;3.22;;;;;;;;;;5063061;28;20238;-18
2022/04/19 01:46:33;;;;;;;3.92;2.83;;;;;;;;;;5059070;28;20229;-18
2022/04/19 01:49:01;;;;;;;3.28;2.90;;;;;;;;;;5059001;28;20209;-18
2022/04/19 01:51:29;;;;;;;3.97;2.90;;;;;;;;;;5062833;28;21008;-18
2022/04/19 01:53:56;;;;;;;4.78;3.22;;;;;;;;;;5060069;28;20219;-18
2022/04/19 01:56:25;;;;;;;4.35;3.08;;;;;;;;;;5059624;28;20221;-17
2022/04/19 01:58:52;;;;;;;3.72;2.78;;;;;;;;;;5062568;28;20303;-19
2022/04/19 02:01:19;;;;;;;4.70;3.22;;;;;;;;;;5060397;28;20963;-18
2022/04/19 02:03:47;;;;;;;5.25;3.00;;;;;;;;;;5061079;28;20229;-19
2022/04/19 02:06:14;;;;;;;3.90;2.95;;;;;;;;;;5060358;28;20740;-19
2022/04/19 02:08:42;;;;;;;3.50;2.75;;;;;;;;;;5058352;28;20226;-19
2022/04/19 02:11:09;;;;;;;4.03;2.95;;;;;;;;;;5062043;28;20716;-19
2022/04/19 02:13:38;;;;;;;4.35;3.00;;;;;;;;;;5059398;28;20224;-18
2022/04/19 02:16:09;;;;;;;3.65;3.15;;;;;;;;;;5062281;28;20304;-19
2022/04/19 02:18:36;;;;;;;5.03;3.10;;;;;;;;;;5059235;28;20218;-19
2022/04/19 02:21:03;;;;;;;6.85;3.03;;;;;;;;;;5082787;22;20216;-17
2022/04/19 02:23:31;;;;;;;3.53;3.10;;;;;;;;;;5023366;28;20246;-17
2022/04/19 02:25:58;;;;;;;4.25;2.75;;;;;;;;;;5016759;28;20238;-16
2022/04/19 02:28:25;;;;;;;4.82;3.28;;;;;;;;;;5021191;28;20829;-16
2022/04/19 02:30:54;;;;;;;3.28;2.88;;;;;;;;;;5025830;28;20694;-16
2022/04/19 02:33:21;;;;;;;4.78;2.95;;;;;;;;;;5020134;28;20262;-16
2022/04/19 02:35:49;;;;;;;4.20;2.90;;;;;;;;;;5020953;28;21041;-18
2022/04/19 02:38:16;;;;;;;5.15;2.85;;;;;;;;;;5018511;28;20729;-18
2022/04/19 02:40:44;;;;;;;3.50;2.92;;;;;;;;;;5015493;28;20249;-18
2022/04/19 02:43:12;;;;;;;5.20;3.03;;;;;;;;;;5022301;28;20690;-17
2022/04/19 02:45:41;;;;;;;3.20;2.90;;;;;;;;;;5020530;28;20238;-16
2022/04/19 02:48:11;;;;;;;3.83;2.88;;;;;;;;;;5019384;28;20235;-18
2022/04/19 02:50:40;;;;;;;4.10;2.70;;;;;;;;;;5021968;28;20230;-17
2022/04/19 02:53:07;;;;;;;3.63;2.65;;;;;;;;;;5023899;28;20942;-18
2022/04/19 02:55:35;;;;;;;4.53;2.88;;;;;;;;;;5024483;28;20219;-18
2022/04/19 02:58:02;;;;;;;3.88;2.60;;;;;;;;;;5022611;28;20238;-18
2022/04/19 03:00:29;;;;;;;3.63;2.70;;;;;;;;;;5024329;28;20238;-18
2022/04/19 03:02:57;;;;;;;3.63;2.88;;;;;;;;;;5022258;28;20240;-18
2022/04/19 03:05:26;;;;;;;10.18;3.03;;;;;;;;;;5025040;28;20245;-18
2022/04/19 03:07:53;;;;;;;4.20;2.80;;;;;;;;;;5023943;28;20239;-18
2022/04/19 03:10:21;;;;;;;4.20;2.90;;;;;;;;;;5023486;28;20235;-18
2022/04/19 03:12:51;;;;;;;4.72;2.78;;;;;;;;;;5023137;28;20227;-18
2022/04/19 03:15:20;;;;;;;3.92;2.92;;;;;;;;;;5025954;28;20292;-18
2022/04/19 03:17:47;;;;;;;3.92;3.10;;;;;;;;;;5023736;28;20266;-18
2022/04/19 03:20:14;;;;;;;4.05;3.10;;;;;;;;;;5022389;28;20239;-17
2022/04/19 03:28:13;;;;;;;3.92;3.22;;;;;;;;;;5021597;28;20237;-18
2022/04/19 03:30:40;;;;;;;3.75;2.90;;;;;;;;;;5029432;28;20241;-18
2022/04/19 03:33:08;;;;;;;3.25;2.95;;;;;;;;;;5021707;28;20625;-18
2022/04/19 03:35:36;;;;;;;4.35;2.97;;;;;;;;;;5024692;28;20234;-18
2022/04/19 03:38:05;;;;;;;3.15;2.63;;;;;;;;;;5024132;28;20318;-18
2022/04/19 03:40:33;;;;;;;2.92;2.63;;;;;;;;;;5020800;28;20243;-18
2022/04/19 03:43:00;;;;;;;3.95;3.25;;;;;;;;;;5021583;28;20235;-18
2022/04/19 03:45:27;;;;;;;2.83;2.55;;;;;;;;;;5024126;28;20231;-18
2022/04/19 03:47:55;;;;;;;3.55;3.03;;;;;;;;;;5021341;28;20237;-18
2022/04/19 03:50:22;;;;;;;3.83;3.42;;;;;;;;;;5024962;28;20239;-18
2022/04/19 03:52:50;;;;;;;4.75;3.00;;;;;;;;;;5025310;28;20231;-18
2022/04/19 03:55:20;;;;;;;4.28;3.03;;;;;;;;;;5022689;28;20231;-18
2022/04/19 03:57:47;;;;;;;3.28;2.78;;;;;;;;;;5022567;28;20235;-18
2022/04/19 04:00:15;;;;;;;4.70;2.75;;;;;;;;;;5024462;28;20237;-18
2022/04/19 04:02:43;;;;;;;5.13;3.20;;;;;;;;;;5023656;28;20257;-18
2022/04/19 04:05:10;;;;;;;5.30;3.20;;;;;;;;;;5020953;28;21061;-18
2022/04/19 04:07:38;;;;;;;2.97;2.67;;;;;;;;;;5020872;28;20758;-18
2022/04/19 04:10:05;;;;;;;3.70;2.70;;;;;;;;;;5023650;28;20239;-18
2022/04/19 04:12:34;;;;;;;3.85;3.00;;;;;;;;;;5024758;28;20702;-18
2022/04/19 04:15:01;;;;;;;3.78;3.28;;;;;;;;;;5020500;28;20223;-18
2022/04/19 04:17:29;;;;;;;3.40;3.03;;;;;;;;;;5025679;28;20281;-18
2022/04/19 04:19:58;;;;;;;4.82;2.78;;;;;;;;;;5021440;28;20223;-18
2022/04/19 04:22:25;;;;;;;6.53;3.05;;;;;;;;;;5023719;28;20312;-18
2022/04/19 04:24:52;;;;;;;6.07;3.05;;;;;;;;;;5023338;28;20711;-18
2022/04/19 04:27:20;;;;;;;3.60;2.97;;;;;;;;;;5022924;28;20223;-18
2022/04/19 04:29:48;;;;;;;4.28;2.97;;;;;;;;;;5021739;28;20784;-18
2022/04/19 04:32:16;;;;;;;4.10;3.13;;;;;;;;;;5028766;28;20235;-18
2022/04/19 04:34:43;;;;;;;4.20;3.08;;;;;;;;;;5024540;28;20237;-18
2022/04/19 04:37:10;;;;;;;3.63;2.83;;;;;;;;;;5025008;28;20243;-18
2022/04/19 04:39:38;;;;;;;3.65;2.88;;;;;;;;;;5027569;28;20231;-18
2022/04/19 04:42:05;;;;;;;3.33;2.92;;;;;;;;;;5023987;28;20235;-18
2022/04/19 04:44:33;;;;;;;4.03;3.47;;;;;;;;;;5028154;28;20236;-17
2022/04/19 04:49:46;;;;;;;3.65;3.00;;;;;;;;;;5001191;28;20263;-18
2022/04/19 04:52:14;;;;;;;3.17;2.78;;;;;;;;;;5022432;28;20702;-18
2022/04/19 04:54:42;;;;;;;6.35;3.15;;;;;;;;;;5022915;28;20226;-18
2022/04/19 04:57:09;;;;;;;9.55;3.03;;;;;;;;;;5020309;28;20242;-18
2022/04/19 04:59:37;;;;;;;5.57;3.42;;;;;;;;;;5023748;28;20238;-18
2022/04/19 05:02:05;;;;;;;15.23;3.45;;;;;;;;;;5029769;28;20230;-18
2022/04/19 05:04:33;;;;;;;10.63;3.97;;;;;;;;;;5026725;28;20235;-18
2022/04/19 05:07:00;;;;;;;7.28;3.65;;;;;;;;;;5025087;28;20241;-18
2022/04/19 05:09:28;;;;;;;13.02;4.10;;;;;;;;;;5029312;28;20234;-17
2022/04/19 05:11:55;;;;;;;7.68;3.63;;;;;;;;;;5022500;28;20238;-17
2022/04/19 05:14:22;;;;;;;8.77;3.88;;;;;;;;;;5030168;28;20233;-17
2022/04/19 05:16:50;;;;;;;10.20;3.95;;;;;;;;;;5023003;28;20238;-17
2022/04/19 05:19:18;;;;;;;12.27;4.50;;;;;;;;;;5024215;28;20231;-18
2022/04/19 05:21:46;;;;;;;11.93;4.53;;;;;;;;;;5024420;28;20242;-18
2022/04/19 05:24:13;;;;;;;8.52;4.22;;;;;;;;;;5028774;28;20234;-18
2022/04/19 05:26:41;;;;;;;6.70;4.38;;;;;;;;;;5026127;28;20302;-18
2022/04/19 05:29:08;;;;;;;24.40;4.97;;;;;;;;;;5028211;28;20263;-18
2022/04/19 05:31:35;;;;;;;26.57;5.10;;;;;;;;;;5023672;28;20436;-17
2022/04/19 05:34:03;;;;;;;17.38;4.70;;;;;;;;;;5019539;28;20240;-17
2022/04/19 05:36:32;;;;;;;22.08;5.63;;;;;;;;;;5022603;28;20709;-17
2022/04/19 05:39:00;;;;;;;15.43;5.05;;;;;;;;;;5021837;28;20227;-17
2022/04/19 05:41:27;;;;;;;19.70;4.40;;;;;;;;;;5022898;28;20241;-17
2022/04/19 05:43:55;;;;;;;12.82;5.25;;;;;;;;;;5019601;28;20241;-17
2022/04/19 05:46:22;;;;;;;25.03;5.47;;;;;;;;;;5021300;28;20430;-17
2022/04/19 05:48:50;;;;;;;13.32;5.13;;;;;;;;;;5021949;28;20690;-17
2022/04/19 05:51:17;;;;;;;21.73;5.75;;;;;;;;;;5021637;28;20321;-17
2022/04/19 05:53:46;;;;;;;25.42;5.22;;;;;;;;;;5021142;28;20233;-17
2022/04/19 05:56:13;;;;;;;15.20;4.80;;;;;;;;;;5020142;28;20235;-17
2022/04/19 05:58:40;;;;;;;12.05;4.72;;;;;;;;;;5021747;28;21073;-17
2022/04/19 06:01:08;;;;;;;10.75;4.80;;;;;;;;;;5022603;28;20231;-17
2022/04/19 06:06:20;;;;;;;8.38;3.85;;;;;;;;;;5020282;28;20702;-17
2022/04/19 06:08:49;;;;;;;11.85;4.65;;;;;;;;;;5017856;28;20228;-17
2022/04/19 06:11:17;;;;;;;9.93;4.60;;;;;;;;;;5023914;28;20242;-17
2022/04/19 06:13:44;;;;;;;10.70;5.15;;;;;;;;;;5023158;28;20239;-17
2022/04/19 06:16:11;;;;;;;19.13;5.50;;;;;;;;;;5024249;28;20239;-17
2022/04/19 06:18:39;;;;;;;18.23;6.10;;;;;;;;;;5022081;28;20235;-17
2022/04/19 06:21:06;;;;;;;11.40;6.30;;;;;;;;;;5024777;28;20247;-17
2022/04/19 06:23:34;;;;;;;27.65;5.88;;;;;;;;;;5023953;28;20239;-17
2022/04/19 06:26:03;;;;;;;15.65;5.50;;;;;;;;;;5018169;28;20718;-17
2022/04/19 06:28:30;;;;;;;9.35;5.15;;;;;;;;;;5026214;28;20230;-17
2022/04/19 06:30:57;;;;;;;15.48;6.38;;;;;;;;;;5023391;28;20235;-17
2022/04/19 06:33:25;;;;;;;15.23;6.10;;;;;;;;;;5025913;28;20226;-17
2022/04/19 06:35:52;;;;;;;16.17;8.45;;;;;;;;;;5020839;28;20906;-17
2022/04/19 06:38:19;;;;;;;11.68;6.70;;;;;;;;;;5026453;28;20223;-17
2022/04/19 06:40:47;;;;;;;14.40;6.30;;;;;;;;;;5023531;28;20231;-17
2022/04/19 06:43:15;;;;;;;14.52;8.88;;;;;;;;;;5024615;28;20243;-17
2022/04/19 06:45:43;;;;;;;16.60;8.95;;;;;;;;;;5024599;28;20999;-17
2022/04/19 06:48:11;;;;;;;14.15;8.20;;;;;;;;;;5028865;28;20235;-17
2022/04/19 06:50:38;;;;;;;12.25;7.75;;;;;;;;;;5027605;28;20239;-17
2022/04/19 06:53:06;;;;;;;18.60;7.20;;;;;;;;;;5023366;28;20475;-17
2022/04/19 06:55:34;;;;;;;12.20;6.53;;;;;;;;;;5026568;28;20239;-18
2022/04/19 06:58:01;;;;;;;12.52;6.50;;;;;;;;;;5022827;28;20238;-17
2022/04/19 07:00:30;;;;;;;13.85;6.70;;;;;;;;;;5025094;28;20807;-17
2022/04/19 07:02:57;;;;;;;17.70;6.47;;;;;;;;;;5020013;28;20426;-17
2022/04/19 07:05:25;;;;;;;12.38;5.32;;;;;;;;;;5025613;28;20241;-17
2022/04/19 07:07:53;;;;;;;15.75;6.45;;;;;;;;;;5027311;28;20413;-18
2022/04/19 07:10:20;;;;;;;11.98;5.97;;;;;;;;;;5021584;28;20235;-17
2022/04/19 07:12:47;;;;;;;20.23;6.07;;;;;;;;;;5023559;28;20233;-17
2022/04/19 07:15:15;;;;;;;14.82;6.63;;;;;;;;;;5020817;28;20455;-17
2022/04/19 07:17:43;;;;;;;11.57;6.55;;;;;;;;;;5024126;28;20445;-17
2022/04/19 07:28:26;;;;;;;16.20;6.70;;;;;;;;;;5025291;28;20417;-17
2022/04/19 07:30:53;;;;;;;11.63;6.82;;;;;;;;;;5028292;28;20230;-17
2022/04/19 07:33:22;;;;;;;11.60;5.80;;;;;;;;;;5027932;28;21660;-17
2022/04/19 07:35:50;;;;;;;15.80;6.38;;;;;;;;;;5024075;28;20239;-17
2022/04/19 07:38:17;;;;;;;13.43;5.22;;;;;;;;;;5026781;28;20246;-17
2022/04/19 07:40:45;;;;;;;12.77;5.80;;;;;;;;;;5026516;28;20241;-17
2022/04/19 07:43:12;;;;;;;11.90;4.93;;;;;;;;;;5024965;28;20744;-17
2022/04/19 07:45:40;;;;;;;9.93;4.82;;;;;;;;;;5025782;28;20234;-17
2022/04/19 07:48:08;;;;;;;7.28;4.57;;;;;;;;;;5027477;28;20231;-17
2022/04/19 07:50:37;;;;;;;9.40;5.10;;;;;;;;;;5028538;28;20246;-17
2022/04/19 07:53:05;;;;;;;8.35;4.28;;;;;;;;;;5022785;28;20230;-17
2022/04/19 07:55:32;;;;;;;11.38;4.53;;;;;;;;;;5019256;28;20242;-18
2022/04/19 07:57:59;;;;;;;6.35;4.10;;;;;;;;;;5021214;28;21331;-17
2022/04/19 08:00:28;;;;;;;6.95;3.80;;;;;;;;;;5028651;28;20246;-17
2022/04/19 08:02:55;;;;;;;5.47;3.45;;;;;;;;;;5024023;28;20243;-17
2022/04/19 08:05:23;;;;;;;8.50;4.10;;;;;;;;;;5022933;28;20231;-17
2022/04/19 08:07:52;;;;;;;7.10;3.80;;;;;;;;;;5025732;28;20945;-17
2022/04/19 08:10:19;;;;;;;5.32;3.67;;;;;;;;;;5022494;28;20234;-17
2022/04/19 08:12:46;;;;;;;6.85;3.83;;;;;;;;;;5021991;28;20271;-17
2022/04/19 08:15:14;;;;;;;4.97;3.63;;;;;;;;;;5022101;28;20231;-17
2022/04/19 08:17:41;;;;;;;4.72;3.55;;;;;;;;;;5018954;28;20239;-17
2022/04/19 08:20:09;;;;;;;8.68;3.75;;;;;;;;;;5024864;28;20707;-17
2022/04/19 08:22:36;;;;;;;11.75;4.32;;;;;;;;;;5023920;28;20250;-18
2022/04/19 08:25:06;;;;;;;7.25;5.05;;;;;;;;;;5026404;28;20370;-17
2022/04/19 08:27:33;;;;;;;10.93;4.78;;;;;;;;;;5026391;28;20263;-17
2022/04/19 08:30:02;;;;;;;8.65;4.97;;;;;;;;;;5024568;28;20689;-17
2022/04/19 08:32:30;;;;;;;12.50;5.72;;;;;;;;;;5024976;28;20230;-17
2022/04/19 08:34:57;;;;;;;7.82;5.28;;;;;;;;;;5025293;28;20241;-17
2022/04/19 08:37:29;;;;;;;12.73;5.17;;;;;;;;;;5023298;28;20428;-17
2022/04/19 08:39:56;;;;;;;11.30;4.57;;;;;;;;;;5018275;28;20741;-17
2022/04/19 08:42:26;;;;;;;9.30;4.70;;;;;;;;;;5023511;28;20694;-17
2022/04/19 08:44:54;;;;;;;11.05;5.32;;;;;;;;;;5024175;28;20238;-17
2022/04/19 08:47:21;;;;;;;25.55;5.28;;;;;;;;;;5027185;28;20443;-18
2022/04/19 08:49:48;;;;;;;12.07;5.33;;;;;;;;;;5023129;28;20931;-18
2022/04/19 08:52:15;;;;;;;11.15;4.88;;;;;;;;;;5019095;28;20432;-18
2022/04/19 08:57:32;;;;;;;8.98;5.50;;;;;;;;;;5023205;28;20418;-18
2022/04/19 09:00:00;;;;;;;10.68;4.95;;;;;;;;;;5024836;28;20467;-18
2022/04/19 09:02:28;;;;;;;11.43;5.20;;;;;;;;;;5022429;28;20253;-18
2022/04/19 09:04:56;;;;;;;11.90;4.93;;;;;;;;;;5028419;28;20682;-18
2022/04/19 09:07:35;;;;;;;13.00;4.97;;;;;;;;;;5020355;28;20566;-18
2022/04/19 09:10:06;;;;;;;10.48;5.20;;;;;;;;;;5025289;28;20650;-18
2022/04/19 09:12:34;;;;;;;9.18;5.10;;;;;;;;;;5024347;28;20451;-19
2022/04/19 09:15:06;;;;;;;9.48;4.93;;;;;;;;;;5024412;28;20315;-18
2022/04/19 09:17:33;;;;;;;10.82;5.00;;;;;;;;;;5023565;28;20507;-18
2022/04/19 09:20:10;;;;;;;8.80;4.13;;;;;;;;;;5026673;28;20234;-18
2022/04/19 09:22:38;;;;;;;14.55;4.85;;;;;;;;;;5017432;28;20242;-18
2022/04/19 09:25:16;;;;;;;14.15;4.70;;;;;;;;;;5022447;28;20432;-18
2022/04/19 09:27:44;;;;;;;7.55;4.03;;;;;;;;;;5020765;28;20242;-18
2022/04/19 09:30:18;;;;;;;10.18;4.35;;;;;;;;;;5026146;28;20239;-18
2022/04/19 09:33:02;;;;;;;11.55;4.28;;;;;;;;;;5018684;28;20226;-18
2022/04/19 09:35:29;;;;;;;7.55;4.30;;;;;;;;;;5022974;28;20265;-18
2022/04/19 09:37:57;;;;;;;9.10;4.13;;;;;;;;;;5022182;28;20235;-18
2022/04/19 09:40:28;;;;;;;9.18;3.95;;;;;;;;;;5023796;28;20231;-18
2022/04/19 09:42:57;;;;;;;7.85;3.63;;;;;;;;;;5019370;28;20228;-18
2022/04/19 09:45:24;;;;;;;23.80;4.38;;;;;;;;;;5025356;28;22711;-18
2022/04/19 09:47:52;;;;;;;13.30;4.10;;;;;;;;;;5018972;28;20234;-18
2022/04/19 09:50:20;;;;;;;14.35;3.70;;;;;;;;;;5025558;28;20246;-18
2022/04/19 09:52:50;;;;;;;12.48;3.72;;;;;;;;;;5021758;28;20235;-18
2022/04/19 09:55:18;;;;;;;16.88;4.38;;;;;;;;;;5021677;28;20289;-18
2022/04/19 09:57:47;;;;;;;7.85;4.30;;;;;;;;;;5023751;28;20243;-18
2022/04/19 10:00:17;;;;;;;11.93;4.88;;;;;;;;;;5022815;28;20234;-18
2022/04/19 10:08:19;;;;;;;9.55;4.60;;;;;;;;;;5023052;28;20438;-19
2022/04/19 10:10:47;;;;;;;8.07;3.83;;;;;;;;;;5024444;28;20241;-19
2022/04/19 10:13:14;;;;;;;8.60;3.78;;;;;;;;;;5023721;28;21104;-19
2022/04/19 10:15:43;;;;;;;4.05;2.97;;;;;;;;;;5027555;28;20245;-19
2022/04/19 10:18:12;;;;;;;11.45;3.58;;;;;;;;;;5023640;28;20265;-19
2022/04/19 10:20:40;;;;;;;7.80;3.35;;;;;;;;;;5026230;28;20231;-19
2022/04/19 10:23:09;;;;;;;11.00;2.80;;;;;;;;;;5023812;28;20246;-19
2022/04/19 10:25:40;;;;;;;9.23;2.70;;;;;;;;;;5025514;28;20264;-19
2022/04/19 10:28:08;;;;;;;5.20;3.53;;;;;;;;;;5024758;28;20239;-18
2022/04/19 10:30:36;;;;;;;6.70;3.10;;;;;;;;;;5020561;28;20403;-19
2022/04/19 10:33:18;;;;;;;4.90;2.75;;;;;;;;;;5028893;28;20298;-18
2022/04/19 10:36:01;;;;;;;5.60;2.40;;;;;;;;;;5027264;28;20227;-19
2022/04/19 10:38:29;;;;;;;6.32;2.45;;;;;;;;;;5030807;28;20724;-19
2022/04/19 10:41:03;;;;;;;9.85;3.20;;;;;;;;;;5026368;28;20972;-18
2022/04/19 10:43:31;;;;;;;8.05;3.45;;;;;;;;;;5030828;28;20235;-19
2022/04/19 10:46:13;;;;;;;14.93;4.13;;;;;;;;;;5026295;28;20238;-19
2022/04/19 10:48:55;;;;;;;6.00;3.97;;;;;;;;;;5027450;28;20233;-19
2022/04/19 10:51:27;;;;;;;8.30;3.65;;;;;;;;;;5023866;28;20416;-20
2022/04/19 10:53:56;;;;;;;6.80;3.40;;;;;;;;;;5025615;28;20427;-18
2022/04/19 10:56:23;;;;;;;11.98;3.42;;;;;;;;;;5029950;28;20234;-19
2022/04/19 10:58:50;;;;;;;5.55;3.15;;;;;;;;;;5024821;28;20246;-19
2022/04/19 11:01:30;;;;;;;5.35;3.42;;;;;;;;;;5026230;28;20238;-18
2022/04/19 11:03:58;;;;;;;8.45;3.78;;;;;;;;;;5018673;28;21520;-18
2022/04/19 11:06:31;;;;;;;9.82;3.63;;;;;;;;;;5023888;28;20446;-18
2022/04/19 11:09:16;;;;;;;10.63;4.03;;;;;;;;;;5027680;28;20470;-19
2022/04/19 11:11:44;;;;;;;5.88;3.17;;;;;;;;;;5027614;28;20438;-19
2022/04/19 11:14:22;;;;;;;9.02;3.15;;;;;;;;;;5027886;28;20337;-18
2022/04/19 11:16:51;;;;;;;6.30;3.80;;;;;;;;;;5028465;28;20317;-18
2022/04/19 11:19:19;;;;;;;8.43;3.75;;;;;;;;;;5026646;28;20456;-19
2022/04/19 11:21:51;;;;;;;7.00;3.55;;;;;;;;;;5029091;28;20242;-19
2022/04/19 11:24:37;;;;;;;7.88;3.58;;;;;;;;;;5027440;28;20243;-19
2022/04/19 11:27:05;;;;;;;6.38;3.20;;;;;;;;;;5028298;28;20246;-19
2022/04/19 11:29:46;;;;;;;6.60;2.75;;;;;;;;;;5022254;28;20229;-19
2022/04/19 11:32:13;;;;;;;5.78;2.60;;;;;;;;;;5024880;28;20239;-19
2022/04/19 11:34:48;;;;;;;5.95;3.10;;;;;;;;;;5020388;28;20255;-19
2022/04/19 11:37:15;;;;;;;6.53;3.50;;;;;;;;;;5024688;28;20265;-19
2022/04/19 11:47:59;;;;;;;4.25;2.55;;;;;;;;;;5026192;28;20238;-18
2022/04/19 11:50:27;;;;;;;3.95;2.60;;;;;;;;;;5028095;28;21980;-19
2022/04/19 11:52:55;;;;;;;5.82;2.70;;;;;;;;;;5028102;28;20269;-18
2022/04/19 11:55:25;;;;;;;3.03;2.45;;;;;;;;;;5029631;28;20241;-19
2022/04/19 11:58:03;;;;;;;4.63;2.35;;;;;;;;;;5024187;28;20918;-19
2022/04/19 12:00:31;;;;;;;2.65;2.20;;;;;;;;;;5027978;28;20329;-18
2022/04/19 12:02:58;;;;;;;3.63;2.33;;;;;;;;;;5024731;28;20710;-19
2022/04/19 12:05:26;;;;;;;3.33;2.25;;;;;;;;;;5027583;28;20321;-19
2022/04/19 12:07:55;;;;;;;2.50;2.00;;;;;;;;;;5027172;28;20257;-19
2022/04/19 12:10:22;;;;;;;4.25;2.13;;;;;;;;;;5029412;28;20242;-19
2022/04/19 12:12:50;;;;;;;4.35;2.30;;;;;;;;;;5024903;28;20699;-19
2022/04/19 12:15:32;;;;;;;2.60;2.05;;;;;;;;;;5021304;28;20243;-18
2022/04/19 12:18:00;;;;;;;3.95;2.00;;;;;;;;;;5023728;28;20226;-19
2022/04/19 12:20:28;;;;;;;8.45;2.03;;;;;;;;;;5021720;28;20245;-18
2022/04/19 12:22:55;;;;;;;4.40;1.98;;;;;;;;;;5018265;28;20242;-19
2022/04/19 12:25:23;;;;;;;3.58;1.75;;;;;;;;;;5021096;28;20317;-19
2022/04/19 12:27:51;;;;;;;2.45;1.92;;;;;;;;;;5021232;28;20321;-19
2022/04/19 12:30:20;;;;;;;3.47;2.00;;;;;;;;;;5022218;28;20231;-19
2022/04/19 12:32:52;;;;;;;4.95;2.53;;;;;;;;;;5024702;28;20227;-19
2022/04/19 12:35:24;;;;;;;3.38;1.65;;;;;;;;;;5024530;28;20238;-19
2022/04/19 12:38:04;;;;;;;3.53;1.67;;;;;;;;;;5021088;28;20266;-19
2022/04/19 12:40:32;;;;;;;5.70;1.38;;;;;;;;;;5021892;28;20242;-19
2022/04/19 12:42:59;;;;;;;2.67;1.40;;;;;;;;;;5023704;28;20250;-19
2022/04/19 12:45:30;;;;;;;5.68;1.63;;;;;;;;;;5019774;28;20242;-19
2022/04/19 12:48:01;;;;;;;3.33;1.50;;;;;;;;;;5022359;28;20321;-18
2022/04/19 12:50:29;;;;;;;1.77;1.40;;;;;;;;;;5020536;28;20227;-19
2022/04/19 12:52:58;;;;;;;3.97;1.50;;;;;;;;;;5024498;28;21027;-19
2022/04/19 12:55:28;;;;;;;1.40;1.20;;;;;;;;;;5025268;28;20274;-19
2022/04/19 12:58:05;;;;;;;2.80;1.38;;;;;;;;;;5023289;28;20227;-19
2022/04/19 13:00:32;;;;;;;3.22;1.55;;;;;;;;;;5021359;28;20241;-18
2022/04/19 13:03:00;;;;;;;1.30;1.10;;;;;;;;;;5024831;28;20235;-19
2022/04/19 13:12:16;;;;;;;1.55;1.15;;;;;;;;;;5023948;28;20235;-19
2022/04/19 13:13:46;;;;;;;3.60;1.75;;;;;;;;;;5021376;28;20414;-19
2022/04/19 13:16:14;;;;;;;5.20;1.40;;;;;;;;;;5020503;28;20239;-19
2022/04/19 13:18:41;;;;;;;2.42;1.50;;;;;;;;;;5021690;28;20325;-18
2022/04/19 13:21:09;;;;;;;3.83;1.27;;;;;;;;;;5026110;28;20337;-18
2022/04/19 13:23:37;;;;;;;3.47;1.85;;;;;;;;;;5023540;28;20237;-19
2022/04/19 13:26:05;;;;;;;4.22;1.67;;;;;;;;;;5025706;28;20235;-19
2022/04/19 13:28:32;;;;;;;3.33;1.17;;;;;;;;;;5023829;28;20675;-19
2022/04/19 13:30:59;;;;;;;2.08;1.60;;;;;;;;;;5021225;28;20233;-19
2022/04/19 13:33:27;;;;;;;1.95;1.33;;;;;;;;;;5023094;28;20735;-19
2022/04/19 13:35:54;;;;;;;5.53;1.30;;;;;;;;;;5023239;28;20425;-19
2022/04/19 13:38:24;;;;;;;3.70;1.50;;;;;;;;;;5020948;28;20927;-19
2022/04/19 13:40:53;;;;;;;3.70;1.45;;;;;;;;;;5023453;28;20313;-19
2022/04/19 13:43:20;;;;;;;2.92;1.20;;;;;;;;;;5022053;28;20238;-19
2022/04/19 13:45:47;;;;;;;1.55;1.23;;;;;;;;;;5022290;28;20237;-19
2022/04/19 13:48:15;;;;;;;5.72;1.40;;;;;;;;;;5022193;28;20270;-19
2022/04/19 13:50:44;;;;;;;2.70;1.55;;;;;;;;;;5021815;28;20234;-19
2022/04/19 13:53:11;;;;;;;2.15;1.50;;;;;;;;;;5024535;28;20251;-19
2022/04/19 13:55:39;;;;;;;3.80;1.77;;;;;;;;;;5020421;28;20254;-19
2022/04/19 13:58:08;;;;;;;2.75;1.60;;;;;;;;;;5027648;28;21259;-19
2022/04/19 14:00:35;;;;;;;3.03;1.33;;;;;;;;;;5021698;28;20243;-19
2022/04/19 14:03:02;;;;;;;3.58;1.30;;;;;;;;;;5022515;28;21104;-19
2022/04/19 14:05:31;;;;;;;2.33;1.50;;;;;;;;;;5021135;28;20799;-19
2022/04/19 14:07:58;;;;;;;1.88;1.10;;;;;;;;;;5021495;28;20231;-19
2022/04/19 14:10:25;;;;;;;2.58;1.17;;;;;;;;;;5022758;28;20767;-19
2022/04/19 14:12:53;;;;;;;1.38;1.17;;;;;;;;;;5025963;28;21041;-19
2022/04/19 14:15:21;;;;;;;3.28;1.35;;;;;;;;;;5025681;28;20243;-19
2022/04/19 14:17:49;;;;;;;4.22;1.48;;;;;;;;;;5022557;28;20246;-19
2022/04/19 14:20:16;;;;;;;3.72;1.00;;;;;;;;;;5020243;28;20717;-19
2022/04/19 14:22:44;;;;;;;7.18;0.90;;;;;;;;;;5015951;28;20259;-19
2022/04/19 14:25:11;;;;;;;1.80;1.02;;;;;;;;;;5024104;28;20230;-18
2022/04/19 14:27:38;;;;;;;1.75;0.88;;;;;;;;;;5019045;28;20250;-18
2022/04/19 14:33:18;;;;;;;3.65;1.27;;;;;;;;;;4983702;28;20463;-19
2022/04/19 14:35:46;;;;;;;3.78;0.93;;;;;;;;;;5014153;28;20235;-19
2022/04/19 14:38:13;;;;;;;3.00;1.08;;;;;;;;;;5022030;28;20343;-19
2022/04/19 14:40:41;;;;;;;2.28;0.80;;;;;;;;;;5027648;28;20241;-19
2022/04/19 14:43:08;;;;;;;1.38;0.80;;;;;;;;;;5024005;28;20242;-19
2022/04/19 14:45:36;;;;;;;1.98;0.70;;;;;;;;;;5031509;28;20320;-19
2022/04/19 14:48:05;;;;;;;2.88;0.70;;;;;;;;;;5026413;28;20231;-19
2022/04/19 14:50:33;;;;;;;1.25;0.80;;;;;;;;;;5022846;28;20276;-19
2022/04/19 14:52:59;;;;;;;1.08;0.70;;;;;;;;;;5027195;28;20231;-19
2022/04/19 14:55:27;;;;;;;3.72;0.90;;;;;;;;;;5024414;28;20234;-19
2022/04/19 14:57:54;;;;;;;2.15;0.73;;;;;;;;;;5021457;28;20237;-19
2022/04/19 15:00:21;;;;;;;1.27;0.55;;;;;;;;;;5021442;28;20764;-19
2022/04/19 15:02:49;;;;;;;0.63;0.50;;;;;;;;;;5024764;28;20267;-18
2022/04/19 15:05:17;;;;;;;2.10;0.73;;;;;;;;;;5024200;28;20226;-19
2022/04/19 15:07:46;;;;;;;3.50;0.85;;;;;;;;;;5024666;28;20254;-19
2022/04/19 15:10:13;;;;;;;2.08;0.60;;;;;;;;;;5025516;28;20239;-19
2022/04/19 15:13:00;;;;;;;3.42;0.70;;;;;;;;;;5028852;28;20242;-18
2022/04/19 15:15:28;;;;;;;2.65;0.60;;;;;;;;;;5023200;28;20241;-19
2022/04/19 15:17:55;;;;;;;1.75;0.70;;;;;;;;;;5025345;28;20231;-18
2022/04/19 15:20:24;;;;;;;3.60;0.60;;;;;;;;;;5025562;28;20655;-18
2022/04/19 15:22:51;;;;;;;2.78;0.88;;;;;;;;;;5025846;28;20746;-19
2022/04/19 15:25:19;;;;;;;1.10;0.70;;;;;;;;;;5026205;28;20243;-19
2022/04/19 15:27:46;;;;;;;1.50;0.68;;;;;;;;;;5025145;28;20239;-19
2022/04/19 15:30:15;;;;;;;3.88;0.80;;;;;;;;;;5024231;28;20717;-19
2022/04/19 15:32:43;;;;;;;4.50;0.93;;;;;;;;;;5022635;28;20242;-19
2022/04/19 15:35:10;;;;;;;4.50;1.10;;;;;;;;;;5025937;28;20235;-19